sensor_id;sensor_type;location;lat;lon;timestamp;pressure;altitude;pressure_sealevel;temperature;humidity
70952;BME280;69214;55.880;37.542;2023-05-29T00:00:07;99101.38;;;8.31;64.43
70952;BME280;69214;55.880;37.542;2023-05-29T00:02:46;99111.44;;;8.30;63.83
70952;BME280;69214;55.880;37.542;2023-05-29T00:05:50;99110.44;;;8.25;64.57
70952;BME280;69214;55.880;37.542;2023-05-29T00:08:16;99106.50;;;8.21;64.94
70952;BME280;69214;55.880;37.542;2023-05-29T00:10:42;99104.31;;;8.11;64.57
70952;BME280;69214;55.880;37.542;2023-05-29T00:13:31;99108.91;;;8.10;62.02
70952;BME280;69214;55.880;37.542;2023-05-29T00:16:19;99105.16;;;8.11;63.74
70952;BME280;69214;55.880;37.542;2023-05-29T00:18:45;99113.44;;;8.17;64.33
70952;BME280;69214;55.880;37.542;2023-05-29T00:21:12;99076.97;;;7.88;63.75
70952;BME280;69214;55.880;37.542;2023-05-29T00:23:40;99081.94;;;7.91;63.79
70952;BME280;69214;55.880;37.542;2023-05-29T00:26:06;99115.03;;;8.06;64.01
70952;BME280;69214;55.880;37.542;2023-05-29T00:28:32;99118.34;;;8.08;64.25
70952;BME280;69214;55.880;37.542;2023-05-29T00:30:58;99107.31;;;8.03;64.08
70952;BME280;69214;55.880;37.542;2023-05-29T00:33:23;99118.56;;;8.06;63.85
70952;BME280;69214;55.880;37.542;2023-05-29T00:35:49;99116.69;;;8.07;64.19
70952;BME280;69214;55.880;37.542;2023-05-29T00:41:04;99117.06;;;8.10;63.53
70952;BME280;69214;55.880;37.542;2023-05-29T00:43:30;99120.63;;;8.11;63.69
70952;BME280;69214;55.880;37.542;2023-05-29T00:45:56;99095.69;;;7.96;63.59
70952;BME280;69214;55.880;37.542;2023-05-29T00:48:22;99122.50;;;8.10;63.17
70952;BME280;69214;55.880;37.542;2023-05-29T00:50:48;99128.53;;;8.12;62.82
70952;BME280;69214;55.880;37.542;2023-05-29T00:53:14;99128.09;;;8.16;62.56
70952;BME280;69214;55.880;37.542;2023-05-29T00:55:41;99126.81;;;8.18;62.92
70952;BME280;69214;55.880;37.542;2023-05-29T00:58:23;99123.66;;;8.21;61.54
70952;BME280;69214;55.880;37.542;2023-05-29T01:00:49;99129.91;;;8.22;62.54
70952;BME280;69214;55.880;37.542;2023-05-29T01:03:18;99113.84;;;8.20;62.24
70952;BME280;69214;55.880;37.542;2023-05-29T01:05:44;99117.91;;;8.29;62.36
70952;BME280;69214;55.880;37.542;2023-05-29T01:08:25;99132.38;;;8.48;62.21
70952;BME280;69214;55.880;37.542;2023-05-29T01:11:48;99129.41;;;8.86;60.25
70952;BME280;69214;55.880;37.542;2023-05-29T01:13:47;99120.13;;;9.24;60.53
70952;BME280;69214;55.880;37.542;2023-05-29T01:22:19;99138.28;;;9.41;58.98
70952;BME280;69214;55.880;37.542;2023-05-29T01:27:36;99145.53;;;9.18;61.23
70952;BME280;69214;55.880;37.542;2023-05-29T01:30:05;99142.06;;;9.11;61.01
70952;BME280;69214;55.880;37.542;2023-05-29T01:32:34;99138.97;;;9.07;61.30
70952;BME280;69214;55.880;37.542;2023-05-29T01:35:04;99148.72;;;9.15;60.44
70952;BME280;69214;55.880;37.542;2023-05-29T01:37:53;99146.13;;;9.20;61.60
70952;BME280;69214;55.880;37.542;2023-05-29T01:40:18;99139.16;;;9.24;61.55
70952;BME280;69214;55.880;37.542;2023-05-29T01:42:53;99138.84;;;9.32;59.89
70952;BME280;69214;55.880;37.542;2023-05-29T01:45:38;99140.88;;;9.36;60.79
70952;BME280;69214;55.880;37.542;2023-05-29T01:48:27;99142.19;;;9.46;60.90
70952;BME280;69214;55.880;37.542;2023-05-29T01:50:56;99148.63;;;9.51;60.01
70952;BME280;69214;55.880;37.542;2023-05-29T01:53:24;99136.88;;;9.51;60.66
70952;BME280;69214;55.880;37.542;2023-05-29T01:55:50;99144.13;;;9.57;60.69
70952;BME280;69214;55.880;37.542;2023-05-29T01:58:26;99145.22;;;9.67;58.16
70952;BME280;69214;55.880;37.542;2023-05-29T02:01:15;99147.84;;;9.74;61.00
70952;BME280;69214;55.880;37.542;2023-05-29T02:03:53;99145.47;;;9.78;60.22
70952;BME280;69214;55.880;37.542;2023-05-29T02:06:25;99145.59;;;9.83;60.22
70952;BME280;69214;55.880;37.542;2023-05-29T02:08:50;99151.31;;;9.93;60.44
70952;BME280;69214;55.880;37.542;2023-05-29T02:11:16;99143.47;;;9.96;60.35
70952;BME280;69214;55.880;37.542;2023-05-29T02:13:42;99152.38;;;10.03;59.71
70952;BME280;69214;55.880;37.542;2023-05-29T02:16:08;99149.78;;;10.09;59.71
70952;BME280;69214;55.880;37.542;2023-05-29T02:18:34;99153.22;;;10.16;60.06
70952;BME280;69214;55.880;37.542;2023-05-29T02:21:00;99155.38;;;10.25;59.03
70952;BME280;69214;55.880;37.542;2023-05-29T02:23:27;99158.59;;;10.34;59.60
70952;BME280;69214;55.880;37.542;2023-05-29T02:25:53;99153.56;;;10.43;58.51
70952;BME280;69214;55.880;37.542;2023-05-29T02:28:20;99157.94;;;10.55;58.14
70952;BME280;69214;55.880;37.542;2023-05-29T02:34:11;99151.44;;;11.98;55.93
70952;BME280;69214;55.880;37.542;2023-05-29T02:36:37;99155.47;;;14.14;51.01
70952;BME280;69214;55.880;37.542;2023-05-29T02:39:05;99145.75;;;16.75;46.35
70952;BME280;69214;55.880;37.542;2023-05-29T02:41:31;99133.91;;;19.23;41.39
70952;BME280;69214;55.880;37.542;2023-05-29T02:44:11;99133.81;;;21.51;39.79
70952;BME280;69214;55.880;37.542;2023-05-29T02:47:24;99127.03;;;23.65;37.28
70952;BME280;69214;55.880;37.542;2023-05-29T02:50:28;99144.09;;;25.35;35.79
70952;BME280;69214;55.880;37.542;2023-05-29T02:52:54;99151.94;;;26.33;30.21
70952;BME280;69214;55.880;37.542;2023-05-29T02:55:20;99146.78;;;27.26;29.05
70952;BME280;69214;55.880;37.542;2023-05-29T02:58:06;99149.47;;;28.11;33.03
70952;BME280;69214;55.880;37.542;2023-05-29T03:00:58;99153.41;;;28.94;27.02
70952;BME280;69214;55.880;37.542;2023-05-29T03:03:26;99163.06;;;29.75;26.11
70952;BME280;69214;55.880;37.542;2023-05-29T03:05:51;99158.56;;;30.06;25.36
70952;BME280;69214;55.880;37.542;2023-05-29T03:08:17;99166.19;;;30.44;25.17
70952;BME280;69214;55.880;37.542;2023-05-29T03:10:43;99162.69;;;31.12;24.11
70952;BME280;69214;55.880;37.542;2023-05-29T03:13:10;99163.34;;;31.77;23.78
70952;BME280;69214;55.880;37.542;2023-05-29T03:16:07;99173.44;;;32.35;28.96
70952;BME280;69214;55.880;37.542;2023-05-29T03:18:35;99176.09;;;32.88;22.29
70952;BME280;69214;55.880;37.542;2023-05-29T03:21:01;99169.31;;;33.36;22.10
70952;BME280;69214;55.880;37.542;2023-05-29T03:26:36;99178.69;;;35.03;20.29
70952;BME280;69214;55.880;37.542;2023-05-29T03:29:03;99174.25;;;35.74;20.07
70952;BME280;69214;55.880;37.542;2023-05-29T03:31:30;99180.25;;;36.22;19.31
70952;BME280;69214;55.880;37.542;2023-05-29T03:33:57;99180.53;;;36.52;20.30
70952;BME280;69214;55.880;37.542;2023-05-29T03:36:34;99173.91;;;36.80;18.77
70952;BME280;69214;55.880;37.542;2023-05-29T03:39:03;99177.28;;;37.27;18.95
70952;BME280;69214;55.880;37.542;2023-05-29T03:41:29;99177.78;;;37.63;17.75
70952;BME280;69214;55.880;37.542;2023-05-29T03:43:55;99184.34;;;38.01;17.35
70952;BME280;69214;55.880;37.542;2023-05-29T03:46:24;99188.28;;;38.48;17.01
70952;BME280;69214;55.880;37.542;2023-05-29T03:48:51;99185.25;;;38.93;16.33
70952;BME280;69214;55.880;37.542;2023-05-29T03:51:17;99186.91;;;39.48;15.84
70952;BME280;69214;55.880;37.542;2023-05-29T03:54:13;99199.69;;;40.30;22.61
70952;BME280;69214;55.880;37.542;2023-05-29T03:56:39;99195.91;;;40.56;15.35
70952;BME280;69214;55.880;37.542;2023-05-29T03:59:05;99188.81;;;41.00;15.11
70952;BME280;69214;55.880;37.542;2023-05-29T04:01:46;99205.00;;;41.59;19.31
70952;BME280;69214;55.880;37.542;2023-05-29T04:04:56;99194.19;;;42.12;14.24
70952;BME280;69214;55.880;37.542;2023-05-29T04:07:22;99204.13;;;42.36;14.34
70952;BME280;69214;55.880;37.542;2023-05-29T04:09:48;99203.69;;;42.80;13.85
70952;BME280;69214;55.880;37.542;2023-05-29T04:12:14;99203.28;;;43.19;13.64
70952;BME280;69214;55.880;37.542;2023-05-29T04:14:41;99202.94;;;43.55;13.59
70952;BME280;69214;55.880;37.542;2023-05-29T04:17:07;99207.41;;;43.82;13.22
70952;BME280;69214;55.880;37.542;2023-05-29T04:19:33;99208.84;;;43.99;12.74
70952;BME280;69214;55.880;37.542;2023-05-29T04:21:59;99207.56;;;44.13;12.97
70952;BME280;69214;55.880;37.542;2023-05-29T04:27:22;99216.38;;;44.53;12.60
70952;BME280;69214;55.880;37.542;2023-05-29T04:29:49;99208.88;;;44.55;12.37
70952;BME280;69214;55.880;37.542;2023-05-29T04:32:15;99215.06;;;44.76;12.08
70952;BME280;69214;55.880;37.542;2023-05-29T04:34:41;99216.81;;;45.26;11.72
70952;BME280;69214;55.880;37.542;2023-05-29T04:37:11;99216.22;;;45.90;11.52
70952;BME280;69214;55.880;37.542;2023-05-29T04:39:39;99216.75;;;46.43;11.53
70952;BME280;69214;55.880;37.542;2023-05-29T04:42:07;99219.03;;;46.99;11.28
70952;BME280;69214;55.880;37.542;2023-05-29T04:45:11;99216.72;;;47.64;11.13
70952;BME280;69214;55.880;37.542;2023-05-29T04:47:38;99219.81;;;48.08;10.88
70952;BME280;69214;55.880;37.542;2023-05-29T04:50:13;99227.91;;;48.43;12.80
70952;BME280;69214;55.880;37.542;2023-05-29T04:52:41;99215.97;;;48.64;10.48
70952;BME280;69214;55.880;37.542;2023-05-29T04:55:10;99218.97;;;48.85;10.58
70952;BME280;69214;55.880;37.542;2023-05-29T04:57:37;99222.47;;;48.74;10.64
70952;BME280;69214;55.880;37.542;2023-05-29T05:00:06;99226.34;;;48.86;10.76
70952;BME280;69214;55.880;37.542;2023-05-29T05:02:43;99225.47;;;49.09;13.12
70952;BME280;69214;55.880;37.542;2023-05-29T05:05:09;99226.84;;;48.84;10.36
70952;BME280;69214;55.880;37.542;2023-05-29T05:07:36;99236.56;;;48.96;10.30
70952;BME280;69214;55.880;37.542;2023-05-29T05:10:05;99227.75;;;49.35;13.22
70952;BME280;69214;55.880;37.542;2023-05-29T05:12:32;99234.25;;;49.29;9.98
70952;BME280;69214;55.880;37.542;2023-05-29T05:14:59;99233.84;;;49.37;10.02
70952;BME280;69214;55.880;37.542;2023-05-29T05:17:26;99233.66;;;49.25;10.27
70952;BME280;69214;55.880;37.542;2023-05-29T05:19:52;99229.94;;;49.40;10.15
70952;BME280;69214;55.880;37.542;2023-05-29T05:22:19;99220.66;;;49.36;9.76
70952;BME280;69214;55.880;37.542;2023-05-29T05:25:12;99246.00;;;49.90;14.51
70952;BME280;69214;55.880;37.542;2023-05-29T05:27:38;99231.38;;;49.29;9.69
70952;BME280;69214;55.880;37.542;2023-05-29T05:30:05;99240.81;;;49.45;10.09
70952;BME280;69214;55.880;37.542;2023-05-29T05:32:32;99234.59;;;49.52;9.70
70952;BME280;69214;55.880;37.542;2023-05-29T05:35:05;99234.31;;;49.50;9.62
70952;BME280;69214;55.880;37.542;2023-05-29T05:37:32;99228.66;;;49.76;9.46
70952;BME280;69214;55.880;37.542;2023-05-29T05:39:59;99241.44;;;50.45;8.91
70952;BME280;69214;55.880;37.542;2023-05-29T05:42:26;99243.28;;;50.94;8.62
70952;BME280;69214;55.880;37.542;2023-05-29T05:44:58;99239.00;;;51.15;9.07
70952;BME280;69214;55.880;37.542;2023-05-29T05:47:24;99232.59;;;51.37;8.35
70952;BME280;69214;55.880;37.542;2023-05-29T05:49:53;99231.13;;;51.53;8.54
70952;BME280;69214;55.880;37.542;2023-05-29T05:52:20;99246.25;;;51.63;8.78
70952;BME280;69214;55.880;37.542;2023-05-29T05:54:46;99237.06;;;51.70;8.22
70952;BME280;69214;55.880;37.542;2023-05-29T05:57:13;99237.72;;;51.96;8.11
70952;BME280;69214;55.880;37.542;2023-05-29T05:59:39;99239.53;;;52.48;8.14
70952;BME280;69214;55.880;37.542;2023-05-29T06:02:05;99242.22;;;52.62;8.00
70952;BME280;69214;55.880;37.542;2023-05-29T06:04:31;99227.69;;;52.79;7.58
70952;BME280;69214;55.880;37.542;2023-05-29T06:06:58;99248.66;;;53.11;7.15
70952;BME280;69214;55.880;37.542;2023-05-29T06:09:24;99245.22;;;53.24;7.34
70952;BME280;69214;55.880;37.542;2023-05-29T06:11:50;99242.84;;;53.39;7.09
70952;BME280;69214;55.880;37.542;2023-05-29T06:14:16;99245.16;;;53.80;6.99
70952;BME280;69214;55.880;37.542;2023-05-29T06:16:43;99242.47;;;54.04;7.04
70952;BME280;69214;55.880;37.542;2023-05-29T06:19:09;99247.22;;;54.07;6.83
70952;BME280;69214;55.880;37.542;2023-05-29T06:21:51;99242.09;;;54.30;6.60
70952;BME280;69214;55.880;37.542;2023-05-29T06:24:17;99234.31;;;54.44;7.12
70952;BME280;69214;55.880;37.542;2023-05-29T06:26:43;99243.56;;;54.53;7.10
70952;BME280;69214;55.880;37.542;2023-05-29T06:29:11;99239.44;;;54.32;6.66
70952;BME280;69214;55.880;37.542;2023-05-29T06:31:43;99239.19;;;54.30;7.05
70952;BME280;69214;55.880;37.542;2023-05-29T06:34:29;99227.22;;;54.22;6.71
70952;BME280;69214;55.880;37.542;2023-05-29T06:36:54;99236.53;;;54.26;6.61
70952;BME280;69214;55.880;37.542;2023-05-29T06:39:21;99244.16;;;54.41;6.87
70952;BME280;69214;55.880;37.542;2023-05-29T06:41:47;99243.41;;;54.35;7.12
70952;BME280;69214;55.880;37.542;2023-05-29T06:44:17;99241.97;;;53.94;6.66
70952;BME280;69214;55.880;37.542;2023-05-29T06:46:43;99241.22;;;53.60;6.91
70952;BME280;69214;55.880;37.542;2023-05-29T06:49:09;99253.72;;;52.99;7.15
70952;BME280;69214;55.880;37.542;2023-05-29T06:52:00;99249.47;;;53.06;9.63
70952;BME280;69214;55.880;37.542;2023-05-29T06:54:46;99241.09;;;52.43;7.15
70952;BME280;69214;55.880;37.542;2023-05-29T06:57:12;99243.25;;;52.48;7.07
70952;BME280;69214;55.880;37.542;2023-05-29T06:59:38;99247.31;;;52.79;7.41
70952;BME280;69214;55.880;37.542;2023-05-29T07:02:04;99246.22;;;52.70;7.33
70952;BME280;69214;55.880;37.542;2023-05-29T07:04:31;99250.22;;;52.84;7.43
70952;BME280;69214;55.880;37.542;2023-05-29T07:06:57;99244.13;;;52.93;7.05
70952;BME280;69214;55.880;37.542;2023-05-29T07:09:24;99241.22;;;52.88;7.31
70952;BME280;69214;55.880;37.542;2023-05-29T07:11:51;99239.66;;;52.98;7.34
70952;BME280;69214;55.880;37.542;2023-05-29T07:14:17;99238.06;;;52.97;6.90
70952;BME280;69214;55.880;37.542;2023-05-29T07:16:44;99248.66;;;53.05;7.00
70952;BME280;69214;55.880;37.542;2023-05-29T07:19:11;99243.09;;;53.24;7.03
70952;BME280;69214;55.880;37.542;2023-05-29T07:21:39;99250.78;;;53.16;6.69
70952;BME280;69214;55.880;37.542;2023-05-29T07:24:06;99233.56;;;53.01;6.89
70952;BME280;69214;55.880;37.542;2023-05-29T07:26:32;99233.50;;;52.73;7.12
70952;BME280;69214;55.880;37.542;2023-05-29T07:28:58;99238.28;;;52.71;7.01
70952;BME280;69214;55.880;37.542;2023-05-29T07:31:23;99241.72;;;52.64;6.82
70952;BME280;69214;55.880;37.542;2023-05-29T07:33:51;99240.56;;;52.33;6.58
70952;BME280;69214;55.880;37.542;2023-05-29T07:36:17;99236.47;;;52.14;7.11
70952;BME280;69214;55.880;37.542;2023-05-29T07:38:45;99222.09;;;51.94;6.85
70952;BME280;69214;55.880;37.542;2023-05-29T07:41:15;99213.03;;;51.80;8.64
70952;BME280;69214;55.880;37.542;2023-05-29T07:43:47;99233.91;;;51.36;6.99
70952;BME280;69214;55.880;37.542;2023-05-29T07:46:18;99233.34;;;50.75;7.79
70952;BME280;69214;55.880;37.542;2023-05-29T07:48:44;99230.06;;;50.21;7.58
70952;BME280;69214;55.880;37.542;2023-05-29T07:51:12;99230.69;;;49.90;7.88
70952;BME280;69214;55.880;37.542;2023-05-29T07:53:44;99229.38;;;49.91;9.32
70952;BME280;69214;55.880;37.542;2023-05-29T07:56:11;99232.09;;;49.59;7.84
70952;BME280;69214;55.880;37.542;2023-05-29T07:58:38;99220.94;;;49.23;8.41
70952;BME280;69214;55.880;37.542;2023-05-29T08:01:06;99211.22;;;48.52;8.38
70952;BME280;69214;55.880;37.542;2023-05-29T08:03:33;99222.28;;;48.00;9.16
70952;BME280;69214;55.880;37.542;2023-05-29T08:06:19;99227.47;;;47.63;9.30
70952;BME280;69214;55.880;37.542;2023-05-29T08:08:45;99219.47;;;47.58;9.20
70952;BME280;69214;55.880;37.542;2023-05-29T08:11:11;99227.84;;;47.56;8.98
70952;BME280;69214;55.880;37.542;2023-05-29T08:13:37;99236.53;;;47.05;8.69
70952;BME280;69214;55.880;37.542;2023-05-29T08:16:03;99236.75;;;45.92;9.52
70952;BME280;69214;55.880;37.542;2023-05-29T08:18:31;99230.41;;;43.82;10.22
70952;BME280;69214;55.880;37.542;2023-05-29T08:20:58;99240.97;;;40.29;11.79
70952;BME280;69214;55.880;37.542;2023-05-29T08:23:24;99231.75;;;37.29;13.07
70952;BME280;69214;55.880;37.542;2023-05-29T08:25:50;99234.91;;;34.73;14.95
70952;BME280;69214;55.880;37.542;2023-05-29T08:28:16;99239.84;;;32.51;17.24
70952;BME280;69214;55.880;37.542;2023-05-29T08:30:42;99244.41;;;30.70;19.23
70952;BME280;69214;55.880;37.542;2023-05-29T08:33:08;99235.56;;;29.19;18.46
70952;BME280;69214;55.880;37.542;2023-05-29T08:35:34;99233.53;;;27.95;20.07
70952;BME280;69214;55.880;37.542;2023-05-29T08:38:01;99241.09;;;26.89;21.40
70952;BME280;69214;55.880;37.542;2023-05-29T08:40:27;99241.78;;;25.90;22.23
70952;BME280;69214;55.880;37.542;2023-05-29T08:43:02;99236.53;;;25.12;22.43
70952;BME280;69214;55.880;37.542;2023-05-29T08:45:43;99239.75;;;24.42;20.71
70952;BME280;69214;55.880;37.542;2023-05-29T08:48:10;99232.59;;;23.75;23.30
70952;BME280;69214;55.880;37.542;2023-05-29T08:50:43;99246.28;;;23.15;21.97
70952;BME280;69214;55.880;37.542;2023-05-29T08:53:13;99220.66;;;22.51;23.60
70952;BME280;69214;55.880;37.542;2023-05-29T08:55:39;99228.22;;;22.14;24.31
70952;BME280;69214;55.880;37.542;2023-05-29T08:58:05;99231.81;;;21.65;26.32
70952;BME280;69214;55.880;37.542;2023-05-29T09:00:32;99229.34;;;21.22;26.16
70952;BME280;69214;55.880;37.542;2023-05-29T09:02:58;99231.53;;;20.93;27.09
70952;BME280;69214;55.880;37.542;2023-05-29T09:05:28;99231.13;;;20.72;27.19
70952;BME280;69214;55.880;37.542;2023-05-29T09:07:56;99225.19;;;20.46;26.51
70952;BME280;69214;55.880;37.542;2023-05-29T09:10:22;99229.69;;;20.42;26.09
70952;BME280;69214;55.880;37.542;2023-05-29T09:12:48;99223.97;;;20.33;27.85
70952;BME280;69214;55.880;37.542;2023-05-29T09:15:21;99226.81;;;20.28;26.81
70952;BME280;69214;55.880;37.542;2023-05-29T09:17:57;99221.22;;;20.15;25.81
70952;BME280;69214;55.880;37.542;2023-05-29T09:20:25;99212.25;;;20.04;27.48
70952;BME280;69214;55.880;37.542;2023-05-29T09:22:58;99222.88;;;19.97;25.14
70952;BME280;69214;55.880;37.542;2023-05-29T09:25:28;99217.19;;;19.88;27.33
70952;BME280;69214;55.880;37.542;2023-05-29T09:30:38;99205.72;;;19.76;24.54
70952;BME280;69214;55.880;37.542;2023-05-29T09:33:05;99192.84;;;19.66;27.61
70952;BME280;69214;55.880;37.542;2023-05-29T09:35:47;99200.50;;;19.75;25.28
70952;BME280;69214;55.880;37.542;2023-05-29T09:38:15;99186.78;;;19.64;27.69
70952;BME280;69214;55.880;37.542;2023-05-29T09:40:41;99183.41;;;19.67;27.95
70952;BME280;69214;55.880;37.542;2023-05-29T09:45:40;99205.34;;;19.64;27.25
70952;BME280;69214;55.880;37.542;2023-05-29T09:48:08;99212.31;;;19.61;27.34
70952;BME280;69214;55.880;37.542;2023-05-29T09:50:37;99205.13;;;19.60;28.84
70952;BME280;69214;55.880;37.542;2023-05-29T09:53:03;99209.53;;;19.61;28.76
70952;BME280;69214;55.880;37.542;2023-05-29T09:55:41;99198.16;;;19.63;28.69
70952;BME280;69214;55.880;37.542;2023-05-29T09:58:08;99197.03;;;19.64;29.27
70952;BME280;69214;55.880;37.542;2023-05-29T10:00:34;99194.19;;;19.69;28.66
70952;BME280;69214;55.880;37.542;2023-05-29T10:03:00;99195.78;;;19.75;28.51
70952;BME280;69214;55.880;37.542;2023-05-29T10:05:26;99191.34;;;19.74;28.92
70952;BME280;69214;55.880;37.542;2023-05-29T10:07:53;99183.13;;;19.69;27.67
70952;BME280;69214;55.880;37.542;2023-05-29T10:10:20;99178.88;;;19.77;29.80
70952;BME280;69214;55.880;37.542;2023-05-29T10:12:49;99175.50;;;19.80;27.86
70952;BME280;69214;55.880;37.542;2023-05-29T10:15:17;99188.97;;;19.86;27.96
70952;BME280;69214;55.880;37.542;2023-05-29T10:18:02;99187.03;;;19.87;25.42
70952;BME280;69214;55.880;37.542;2023-05-29T10:20:31;99177.66;;;19.83;27.20
70952;BME280;69214;55.880;37.542;2023-05-29T10:23:00;99181.34;;;19.78;27.91
70952;BME280;69214;55.880;37.542;2023-05-29T10:25:29;99179.69;;;19.77;27.49
70952;BME280;69214;55.880;37.542;2023-05-29T10:27:57;99186.03;;;19.78;27.66
70952;BME280;69214;55.880;37.542;2023-05-29T10:30:45;99173.53;;;19.80;25.68
70952;BME280;69214;55.880;37.542;2023-05-29T10:36:18;99173.78;;;19.84;25.36
70952;BME280;69214;55.880;37.542;2023-05-29T10:38:45;99161.28;;;19.86;27.29
70952;BME280;69214;55.880;37.542;2023-05-29T10:43:59;99171.44;;;19.91;26.97
70952;BME280;69214;55.880;37.542;2023-05-29T10:47:00;99168.38;;;19.92;25.79
70952;BME280;69214;55.880;37.542;2023-05-29T10:49:26;99155.13;;;19.89;28.22
70952;BME280;69214;55.880;37.542;2023-05-29T10:51:52;99162.84;;;19.92;28.33
70952;BME280;69214;55.880;37.542;2023-05-29T10:54:23;99155.66;;;19.91;26.74
70952;BME280;69214;55.880;37.542;2023-05-29T10:56:57;99159.56;;;19.90;26.65
70952;BME280;69214;55.880;37.542;2023-05-29T10:59:25;99162.63;;;19.89;27.81
70952;BME280;69214;55.880;37.542;2023-05-29T11:01:55;99160.97;;;19.88;27.61
70952;BME280;69214;55.880;37.542;2023-05-29T11:06:52;99164.34;;;19.85;28.50
70952;BME280;69214;55.880;37.542;2023-05-29T11:09:37;99164.56;;;19.88;26.52
70952;BME280;69214;55.880;37.542;2023-05-29T11:12:22;99147.72;;;19.85;26.09
70952;BME280;69214;55.880;37.542;2023-05-29T11:15:06;99154.38;;;20.02;28.09
70952;BME280;69214;55.880;37.542;2023-05-29T11:20:48;99137.88;;;20.11;27.32
70952;BME280;69214;55.880;37.542;2023-05-29T11:23:35;99149.09;;;20.20;27.30
70952;BME280;69214;55.880;37.542;2023-05-29T11:25:44;99149.00;;;20.25;26.81
70952;BME280;69214;55.880;37.542;2023-05-29T11:28:12;99148.09;;;20.29;26.94
70952;BME280;69214;55.880;37.542;2023-05-29T11:30:47;99138.06;;;20.33;26.03
70952;BME280;69214;55.880;37.542;2023-05-29T11:33:33;99136.63;;;20.36;26.02
70952;BME280;69214;55.880;37.542;2023-05-29T11:36:01;99145.94;;;20.45;26.87
70952;BME280;69214;55.880;37.542;2023-05-29T11:38:29;99152.81;;;20.48;26.44
70952;BME280;69214;55.880;37.542;2023-05-29T11:40:55;99144.28;;;20.44;27.10
70952;BME280;69214;55.880;37.542;2023-05-29T11:43:22;99138.44;;;20.46;26.78
70952;BME280;69214;55.880;37.542;2023-05-29T11:45:48;99126.63;;;20.40;26.84
70952;BME280;69214;55.880;37.542;2023-05-29T11:48:14;99118.66;;;20.33;26.47
70952;BME280;69214;55.880;37.542;2023-05-29T11:50:40;99116.66;;;20.39;26.62
70952;BME280;69214;55.880;37.542;2023-05-29T11:53:07;99134.44;;;20.52;26.34
70952;BME280;69214;55.880;37.542;2023-05-29T11:55:33;99128.06;;;20.51;25.73
70952;BME280;69214;55.880;37.542;2023-05-29T11:58:01;99120.88;;;20.50;25.99
70952;BME280;69214;55.880;37.542;2023-05-29T12:00:34;99130.53;;;20.53;25.83
70952;BME280;69214;55.880;37.542;2023-05-29T12:03:00;99110.81;;;20.54;26.69
70952;BME280;69214;55.880;37.542;2023-05-29T12:05:43;99113.19;;;20.61;26.25
70952;BME280;69214;55.880;37.542;2023-05-29T12:08:09;99123.38;;;20.65;26.60
70952;BME280;69214;55.880;37.542;2023-05-29T12:10:35;99121.94;;;20.68;26.74
70952;BME280;69214;55.880;37.542;2023-05-29T12:13:01;99101.50;;;20.64;26.71
70952;BME280;69214;55.880;37.542;2023-05-29T12:15:27;99110.53;;;20.69;26.56
70952;BME280;69214;55.880;37.542;2023-05-29T12:17:54;99118.97;;;20.78;26.45
70952;BME280;69214;55.880;37.542;2023-05-29T12:20:25;99094.81;;;20.79;26.06
70952;BME280;69214;55.880;37.542;2023-05-29T12:22:59;99098.84;;;20.73;25.77
70952;BME280;69214;55.880;37.542;2023-05-29T12:25:27;99117.00;;;20.79;26.69
70952;BME280;69214;55.880;37.542;2023-05-29T12:27:55;99098.41;;;20.79;26.13
70952;BME280;69214;55.880;37.542;2023-05-29T12:30:22;99093.69;;;20.80;26.25
70952;BME280;69214;55.880;37.542;2023-05-29T12:32:52;99088.16;;;20.80;26.46
70952;BME280;69214;55.880;37.542;2023-05-29T12:35:20;99098.28;;;20.84;26.24
70952;BME280;69214;55.880;37.542;2023-05-29T12:37:58;99087.72;;;20.86;25.42
70952;BME280;69214;55.880;37.542;2023-05-29T12:40:26;99102.91;;;20.89;26.39
70952;BME280;69214;55.880;37.542;2023-05-29T12:43:05;99089.66;;;20.86;25.50
70952;BME280;69214;55.880;37.542;2023-05-29T12:45:33;99088.53;;;20.87;25.84
70952;BME280;69214;55.880;37.542;2023-05-29T12:48:03;99079.63;;;20.76;25.78
70952;BME280;69214;55.880;37.542;2023-05-29T12:50:30;99092.75;;;20.84;25.85
70952;BME280;69214;55.880;37.542;2023-05-29T12:53:04;99081.84;;;20.88;25.35
70952;BME280;69214;55.880;37.542;2023-05-29T12:55:32;99079.59;;;20.90;25.60
70952;BME280;69214;55.880;37.542;2023-05-29T12:58:03;99084.31;;;20.89;25.41
70952;BME280;69214;55.880;37.542;2023-05-29T13:00:29;99082.66;;;20.88;25.72
70952;BME280;69214;55.880;37.542;2023-05-29T13:02:56;99078.75;;;20.89;26.04
70952;BME280;69214;55.880;37.542;2023-05-29T13:05:22;99074.75;;;20.95;25.89
70952;BME280;69214;55.880;37.542;2023-05-29T13:07:49;99062.63;;;20.91;25.48
70952;BME280;69214;55.880;37.542;2023-05-29T13:10:16;99087.69;;;21.00;25.95
70952;BME280;69214;55.880;37.542;2023-05-29T13:12:44;99071.06;;;21.00;25.87
70952;BME280;69214;55.880;37.542;2023-05-29T13:15:12;99090.69;;;21.03;26.01
70952;BME280;69214;55.880;37.542;2023-05-29T13:17:39;99088.72;;;21.04;26.31
70952;BME280;69214;55.880;37.542;2023-05-29T13:20:10;99070.53;;;20.98;26.14
70952;BME280;69214;55.880;37.542;2023-05-29T13:22:37;99086.03;;;21.13;25.89
70952;BME280;69214;55.880;37.542;2023-05-29T13:25:06;99086.25;;;21.16;25.57
70952;BME280;69214;55.880;37.542;2023-05-29T13:27:33;99083.97;;;21.18;26.16
70952;BME280;69214;55.880;37.542;2023-05-29T13:30:00;99075.06;;;21.08;26.01
70952;BME280;69214;55.880;37.542;2023-05-29T13:32:30;99087.06;;;21.17;26.58
70952;BME280;69214;55.880;37.542;2023-05-29T13:34:56;99073.41;;;21.07;26.48
70952;BME280;69214;55.880;37.542;2023-05-29T13:37:22;99078.03;;;21.11;26.49
70952;BME280;69214;55.880;37.542;2023-05-29T13:39:48;99074.94;;;21.13;26.46
70952;BME280;69214;55.880;37.542;2023-05-29T13:42:14;99065.69;;;21.03;26.66
70952;BME280;69214;55.880;37.542;2023-05-29T13:44:40;99072.38;;;21.16;26.77